sensor_id;sensor_type;location;lat;lon;timestamp;temperature;humidity
12276;DHT22;6200;48.144;11.424;2023-11-21T00:02:13;7.70;99.90
12276;DHT22;6200;48.144;11.424;2023-11-21T00:04:39;7.70;99.90
12276;DHT22;6200;48.144;11.424;2023-11-21T00:07:04;7.70;99.90
12276;DHT22;6200;48.144;11.424;2023-11-21T00:09:31;7.70;99.90
12276;DHT22;6200;48.144;11.424;2023-11-21T00:11:57;7.70;99.90
12276;DHT22;6200;48.144;11.424;2023-11-21T00:14:22;7.60;99.90
12276;DHT22;6200;48.144;11.424;2023-11-21T00:16:48;7.60;99.90
12276;DHT22;6200;48.144;11.424;2023-11-21T00:19:14;7.60;99.90
12276;DHT22;6200;48.144;11.424;2023-11-21T00:21:39;7.60;99.90
12276;DHT22;6200;48.144;11.424;2023-11-21T00:24:05;7.60;99.90
12276;DHT22;6200;48.144;11.424;2023-11-21T00:26:30;7.60;99.90
12276;DHT22;6200;48.144;11.424;2023-11-21T00:29:01;7.60;99.90
12276;DHT22;6200;48.144;11.424;2023-11-21T00:31:27;7.60;99.90
12276;DHT22;6200;48.144;11.424;2023-11-21T00:33:52;7.60;99.90
12276;DHT22;6200;48.144;11.424;2023-11-21T00:36:20;7.60;99.90
12276;DHT22;6200;48.144;11.424;2023-11-21T00:38:45;7.50;99.90
12276;DHT22;6200;48.144;11.424;2023-11-21T00:41:11;7.50;99.90
12276;DHT22;6200;48.144;11.424;2023-11-21T00:43:36;7.50;99.90
12276;DHT22;6200;48.144;11.424;2023-11-21T00:46:06;7.50;99.90
12276;DHT22;6200;48.144;11.424;2023-11-21T00:48:34;7.40;99.90
12276;DHT22;6200;48.144;11.424;2023-11-21T00:50:59;7.40;99.90
12276;DHT22;6200;48.144;11.424;2023-11-21T00:53:25;7.50;99.90
12276;DHT22;6200;48.144;11.424;2023-11-21T00:55:51;7.50;99.90
12276;DHT22;6200;48.144;11.424;2023-11-21T00:58:23;7.40;99.90
12276;DHT22;6200;48.144;11.424;2023-11-21T01:00:48;7.40;99.90
12276;DHT22;6200;48.144;11.424;2023-11-21T01:03:14;7.40;99.90
12276;DHT22;6200;48.144;11.424;2023-11-21T01:05:39;7.40;99.90
12276;DHT22;6200;48.144;11.424;2023-11-21T01:08:05;7.30;99.90
12276;DHT22;6200;48.144;11.424;2023-11-21T01:10:31;7.20;99.90
12276;DHT22;6200;48.144;11.424;2023-11-21T01:12:56;7.20;99.90
12276;DHT22;6200;48.144;11.424;2023-11-21T01:15:23;7.20;99.90
12276;DHT22;6200;48.144;11.424;2023-11-21T01:17:48;7.10;99.90
12276;DHT22;6200;48.144;11.424;2023-11-21T01:20:14;7.10;99.90
12276;DHT22;6200;48.144;11.424;2023-11-21T01:22:41;7.10;99.90
12276;DHT22;6200;48.144;11.424;2023-11-21T01:25:06;7.10;99.90
12276;DHT22;6200;48.144;11.424;2023-11-21T01:27:35;7.10;99.90
12276;DHT22;6200;48.144;11.424;2023-11-21T01:30:02;7.10;99.90
12276;DHT22;6200;48.144;11.424;2023-11-21T01:32:28;7.10;99.90
12276;DHT22;6200;48.144;11.424;2023-11-21T01:34:54;7.00;99.90
12276;DHT22;6200;48.144;11.424;2023-11-21T01:37:23;7.00;99.90
12276;DHT22;6200;48.144;11.424;2023-11-21T01:39:49;7.00;99.90
12276;DHT22;6200;48.144;11.424;2023-11-21T01:42:15;7.00;99.90
12276;DHT22;6200;48.144;11.424;2023-11-21T01:44:40;6.90;99.90
12276;DHT22;6200;48.144;11.424;2023-11-21T01:47:06;6.90;99.90
12276;DHT22;6200;48.144;11.424;2023-11-21T01:49:33;6.90;99.90
12276;DHT22;6200;48.144;11.424;2023-11-21T01:51:59;6.90;99.90
12276;DHT22;6200;48.144;11.424;2023-11-21T01:54:25;6.90;99.90
12276;DHT22;6200;48.144;11.424;2023-11-21T01:56:51;7.00;99.90
12276;DHT22;6200;48.144;11.424;2023-11-21T01:59:21;7.00;99.90
12276;DHT22;6200;48.144;11.424;2023-11-21T02:01:47;7.00;99.90
12276;DHT22;6200;48.144;11.424;2023-11-21T02:04:13;7.00;99.90
12276;DHT22;6200;48.144;11.424;2023-11-21T02:06:39;6.90;99.90
12276;DHT22;6200;48.144;11.424;2023-11-21T02:09:04;6.90;99.90
12276;DHT22;6200;48.144;11.424;2023-11-21T02:11:30;7.00;99.90
12276;DHT22;6200;48.144;11.424;2023-11-21T02:13:58;7.00;99.90
12276;DHT22;6200;48.144;11.424;2023-11-21T02:16:24;7.00;99.90
12276;DHT22;6200;48.144;11.424;2023-11-21T02:18:51;7.00;99.90
12276;DHT22;6200;48.144;11.424;2023-11-21T02:21:17;7.00;99.90
12276;DHT22;6200;48.144;11.424;2023-11-21T02:23:44;7.10;99.90
12276;DHT22;6200;48.144;11.424;2023-11-21T02:26:12;7.10;99.90
12276;DHT22;6200;48.144;11.424;2023-11-21T02:28:37;7.10;99.90
12276;DHT22;6200;48.144;11.424;2023-11-21T02:31:04;7.20;99.90
12276;DHT22;6200;48.144;11.424;2023-11-21T02:33:30;7.20;99.90
12276;DHT22;6200;48.144;11.424;2023-11-21T02:36:02;7.20;99.90
12276;DHT22;6200;48.144;11.424;2023-11-21T02:38:28;7.20;99.90
12276;DHT22;6200;48.144;11.424;2023-11-21T02:40:53;7.20;99.90
12276;DHT22;6200;48.144;11.424;2023-11-21T02:43:19;7.20;99.90
12276;DHT22;6200;48.144;11.424;2023-11-21T02:45:44;7.20;99.90
12276;DHT22;6200;48.144;11.424;2023-11-21T02:48:10;7.30;99.90
12276;DHT22;6200;48.144;11.424;2023-11-21T02:50:36;7.20;99.90
12276;DHT22;6200;48.144;11.424;2023-11-21T02:53:03;7.30;99.90
12276;DHT22;6200;48.144;11.424;2023-11-21T02:55:31;7.20;99.90
12276;DHT22;6200;48.144;11.424;2023-11-21T02:58:00;7.20;99.90
12276;DHT22;6200;48.144;11.424;2023-11-21T03:00:25;7.20;99.90
12276;DHT22;6200;48.144;11.424;2023-11-21T03:02:51;7.20;99.90
12276;DHT22;6200;48.144;11.424;2023-11-21T03:05:16;7.20;99.90
12276;DHT22;6200;48.144;11.424;2023-11-21T03:07:42;7.10;99.90
12276;DHT22;6200;48.144;11.424;2023-11-21T03:10:08;7.10;99.90
12276;DHT22;6200;48.144;11.424;2023-11-21T03:12:34;7.10;99.90
12276;DHT22;6200;48.144;11.424;2023-11-21T03:15:00;7.10;99.90
12276;DHT22;6200;48.144;11.424;2023-11-21T03:17:27;7.10;99.90
12276;DHT22;6200;48.144;11.424;2023-11-21T03:19:54;7.10;99.90
12276;DHT22;6200;48.144;11.424;2023-11-21T03:22:20;7.20;99.90
12276;DHT22;6200;48.144;11.424;2023-11-21T03:24:45;7.10;99.90
12276;DHT22;6200;48.144;11.424;2023-11-21T03:27:11;7.20;99.90
12276;DHT22;6200;48.144;11.424;2023-11-21T03:29:37;7.20;99.90
12276;DHT22;6200;48.144;11.424;2023-11-21T03:32:03;7.20;99.90
12276;DHT22;6200;48.144;11.424;2023-11-21T03:34:29;7.20;99.90
12276;DHT22;6200;48.144;11.424;2023-11-21T03:36:54;7.20;99.90
12276;DHT22;6200;48.144;11.424;2023-11-21T03:39:21;7.20;99.90
12276;DHT22;6200;48.144;11.424;2023-11-21T03:41:47;7.20;99.90
12276;DHT22;6200;48.144;11.424;2023-11-21T03:44:13;7.30;99.90
12276;DHT22;6200;48.144;11.424;2023-11-21T03:46:39;7.30;99.90
12276;DHT22;6200;48.144;11.424;2023-11-21T03:49:05;7.30;99.90
12276;DHT22;6200;48.144;11.424;2023-11-21T03:51:30;7.30;99.90
12276;DHT22;6200;48.144;11.424;2023-11-21T03:53:56;7.30;99.90
12276;DHT22;6200;48.144;11.424;2023-11-21T03:56:21;7.30;99.90
12276;DHT22;6200;48.144;11.424;2023-11-21T03:58:48;7.20;99.90
12276;DHT22;6200;48.144;11.424;2023-11-21T04:01:24;7.30;99.90
12276;DHT22;6200;48.144;11.424;2023-11-21T04:03:50;7.30;99.90
12276;DHT22;6200;48.144;11.424;2023-11-21T04:06:16;7.20;99.90
12276;DHT22;6200;48.144;11.424;2023-11-21T04:08:45;7.20;99.90
12276;DHT22;6200;48.144;11.424;2023-11-21T04:11:11;7.20;99.90
12276;DHT22;6200;48.144;11.424;2023-11-21T04:13:38;7.30;99.90
12276;DHT22;6200;48.144;11.424;2023-11-21T04:16:04;7.30;99.90
12276;DHT22;6200;48.144;11.424;2023-11-21T04:18:30;7.30;99.90
12276;DHT22;6200;48.144;11.424;2023-11-21T04:20:56;7.30;99.90
12276;DHT22;6200;48.144;11.424;2023-11-21T04:23:21;7.30;99.90
12276;DHT22;6200;48.144;11.424;2023-11-21T04:25:47;7.30;99.90
12276;DHT22;6200;48.144;11.424;2023-11-21T04:28:12;7.30;99.90
12276;DHT22;6200;48.144;11.424;2023-11-21T04:30:38;7.30;99.90
12276;DHT22;6200;48.144;11.424;2023-11-21T04:33:04;7.30;99.90
12276;DHT22;6200;48.144;11.424;2023-11-21T04:35:30;7.30;99.90
12276;DHT22;6200;48.144;11.424;2023-11-21T04:37:56;7.30;99.90
12276;DHT22;6200;48.144;11.424;2023-11-21T04:40:22;7.30;99.90
12276;DHT22;6200;48.144;11.424;2023-11-21T04:42:48;7.40;99.90
12276;DHT22;6200;48.144;11.424;2023-11-21T04:45:13;7.30;99.90
12276;DHT22;6200;48.144;11.424;2023-11-21T04:47:39;7.30;99.90
12276;DHT22;6200;48.144;11.424;2023-11-21T04:50:05;7.30;99.90
12276;DHT22;6200;48.144;11.424;2023-11-21T04:52:31;7.30;99.90
12276;DHT22;6200;48.144;11.424;2023-11-21T04:54:58;7.30;99.90
12276;DHT22;6200;48.144;11.424;2023-11-21T04:57:24;7.30;99.90
12276;DHT22;6200;48.144;11.424;2023-11-21T04:59:49;7.30;99.90
12276;DHT22;6200;48.144;11.424;2023-11-21T05:02:16;7.30;99.90
12276;DHT22;6200;48.144;11.424;2023-11-21T05:04:41;7.20;99.90
12276;DHT22;6200;48.144;11.424;2023-11-21T05:07:08;7.20;99.90
12276;DHT22;6200;48.144;11.424;2023-11-21T05:09:33;7.20;99.90
12276;DHT22;6200;48.144;11.424;2023-11-21T05:11:59;7.20;99.90
12276;DHT22;6200;48.144;11.424;2023-11-21T05:14:25;7.20;99.90
12276;DHT22;6200;48.144;11.424;2023-11-21T05:16:51;7.20;99.90
12276;DHT22;6200;48.144;11.424;2023-11-21T05:19:17;7.60;99.90
12276;DHT22;6200;48.144;11.424;2023-11-21T05:21:42;7.20;99.90
12276;DHT22;6200;48.144;11.424;2023-11-21T05:24:08;7.20;99.90
12276;DHT22;6200;48.144;11.424;2023-11-21T05:26:35;7.20;99.90
12276;DHT22;6200;48.144;11.424;2023-11-21T05:29:00;7.20;99.90
12276;DHT22;6200;48.144;11.424;2023-11-21T05:31:26;7.20;99.90
12276;DHT22;6200;48.144;11.424;2023-11-21T05:33:52;7.20;99.90
12276;DHT22;6200;48.144;11.424;2023-11-21T05:36:18;7.10;99.90
12276;DHT22;6200;48.144;11.424;2023-11-21T05:38:43;7.00;99.90
12276;DHT22;6200;48.144;11.424;2023-11-21T05:41:09;7.10;99.90
12276;DHT22;6200;48.144;11.424;2023-11-21T05:43:39;7.10;99.90
12276;DHT22;6200;48.144;11.424;2023-11-21T05:46:05;7.10;99.90
12276;DHT22;6200;48.144;11.424;2023-11-21T05:48:32;7.10;99.90
12276;DHT22;6200;48.144;11.424;2023-11-21T05:50:58;7.10;99.90
12276;DHT22;6200;48.144;11.424;2023-11-21T05:53:24;7.10;99.90
12276;DHT22;6200;48.144;11.424;2023-11-21T05:55:50;7.10;99.90
12276;DHT22;6200;48.144;11.424;2023-11-21T05:58:15;7.10;99.90
12276;DHT22;6200;48.144;11.424;2023-11-21T06:00:41;7.10;99.90
12276;DHT22;6200;48.144;11.424;2023-11-21T06:03:07;7.10;99.90
12276;DHT22;6200;48.144;11.424;2023-11-21T06:05:33;7.10;99.90
12276;DHT22;6200;48.144;11.424;2023-11-21T06:07:58;7.10;99.90
12276;DHT22;6200;48.144;11.424;2023-11-21T06:10:24;7.10;99.90
12276;DHT22;6200;48.144;11.424;2023-11-21T06:12:50;7.10;99.90
12276;DHT22;6200;48.144;11.424;2023-11-21T06:15:16;7.10;99.90
12276;DHT22;6200;48.144;11.424;2023-11-21T06:17:44;7.10;99.90
12276;DHT22;6200;48.144;11.424;2023-11-21T06:20:14;7.10;99.90
12276;DHT22;6200;48.144;11.424;2023-11-21T06:22:45;7.10;99.90
12276;DHT22;6200;48.144;11.424;2023-11-21T06:25:11;7.10;99.90
12276;DHT22;6200;48.144;11.424;2023-11-21T06:27:40;7.20;99.90
12276;DHT22;6200;48.144;11.424;2023-11-21T06:30:07;7.10;99.90
12276;DHT22;6200;48.144;11.424;2023-11-21T06:32:35;7.10;99.90
12276;DHT22;6200;48.144;11.424;2023-11-21T06:35:04;7.20;99.90
12276;DHT22;6200;48.144;11.424;2023-11-21T06:37:31;7.20;99.90
12276;DHT22;6200;48.144;11.424;2023-11-21T06:39:57;7.20;99.90
12276;DHT22;6200;48.144;11.424;2023-11-21T06:42:23;7.20;99.90
12276;DHT22;6200;48.144;11.424;2023-11-21T06:44:49;7.20;99.90
12276;DHT22;6200;48.144;11.424;2023-11-21T06:47:17;7.20;99.90
12276;DHT22;6200;48.144;11.424;2023-11-21T06:49:43;7.20;99.90
12276;DHT22;6200;48.144;11.424;2023-11-21T06:52:09;7.30;99.90
12276;DHT22;6200;48.144;11.424;2023-11-21T06:54:34;7.20;99.90
12276;DHT22;6200;48.144;11.424;2023-11-21T06:57:01;7.20;99.90
12276;DHT22;6200;48.144;11.424;2023-11-21T06:59:28;7.20;99.90
12276;DHT22;6200;48.144;11.424;2023-11-21T07:01:54;7.30;99.90
12276;DHT22;6200;48.144;11.424;2023-11-21T07:04:19;7.30;99.90
12276;DHT22;6200;48.144;11.424;2023-11-21T07:06:45;7.30;99.90
12276;DHT22;6200;48.144;11.424;2023-11-21T07:09:11;7.30;99.90
12276;DHT22;6200;48.144;11.424;2023-11-21T07:11:37;7.30;99.90
12276;DHT22;6200;48.144;11.424;2023-11-21T07:14:04;7.30;99.90
12276;DHT22;6200;48.144;11.424;2023-11-21T07:16:34;7.30;99.90
12276;DHT22;6200;48.144;11.424;2023-11-21T07:19:03;7.40;99.90
12276;DHT22;6200;48.144;11.424;2023-11-21T07:21:31;7.40;99.90
12276;DHT22;6200;48.144;11.424;2023-11-21T07:23:57;7.40;99.90
12276;DHT22;6200;48.144;11.424;2023-11-21T07:26:23;7.40;99.90
12276;DHT22;6200;48.144;11.424;2023-11-21T07:28:49;7.40;99.90
12276;DHT22;6200;48.144;11.424;2023-11-21T07:31:15;7.40;99.90
12276;DHT22;6200;48.144;11.424;2023-11-21T07:33:41;7.40;99.90
12276;DHT22;6200;48.144;11.424;2023-11-21T07:36:07;7.50;99.90
12276;DHT22;6200;48.144;11.424;2023-11-21T07:38:32;7.50;99.90
12276;DHT22;6200;48.144;11.424;2023-11-21T07:40:58;7.50;99.90
12276;DHT22;6200;48.144;11.424;2023-11-21T07:43:26;7.50;99.90
12276;DHT22;6200;48.144;11.424;2023-11-21T07:45:52;7.50;99.90
12276;DHT22;6200;48.144;11.424;2023-11-21T07:48:17;7.60;99.90
12276;DHT22;6200;48.144;11.424;2023-11-21T07:50:43;7.60;99.90
12276;DHT22;6200;48.144;11.424;2023-11-21T07:53:08;7.60;99.90
12276;DHT22;6200;48.144;11.424;2023-11-21T07:55:34;7.70;99.90
12276;DHT22;6200;48.144;11.424;2023-11-21T07:58:01;7.80;99.90
12276;DHT22;6200;48.144;11.424;2023-11-21T08:00:27;7.90;99.90
12276;DHT22;6200;48.144;11.424;2023-11-21T08:02:55;8.00;99.90
12276;DHT22;6200;48.144;11.424;2023-11-21T08:05:21;8.00;99.90
12276;DHT22;6200;48.144;11.424;2023-11-21T08:07:46;8.10;99.90
12276;DHT22;6200;48.144;11.424;2023-11-21T08:10:12;8.20;99.90
12276;DHT22;6200;48.144;11.424;2023-11-21T08:12:37;8.20;99.90
12276;DHT22;6200;48.144;11.424;2023-11-21T08:15:04;8.30;99.90
12276;DHT22;6200;48.144;11.424;2023-11-21T08:17:30;8.30;99.90
12276;DHT22;6200;48.144;11.424;2023-11-21T08:19:58;8.50;99.90
12276;DHT22;6200;48.144;11.424;2023-11-21T08:22:23;8.50;99.90
12276;DHT22;6200;48.144;11.424;2023-11-21T08:24:50;8.50;99.90
12276;DHT22;6200;48.144;11.424;2023-11-21T08:27:16;8.50;99.90
12276;DHT22;6200;48.144;11.424;2023-11-21T08:29:43;8.60;99.90
12276;DHT22;6200;48.144;11.424;2023-11-21T08:32:08;8.60;99.90
12276;DHT22;6200;48.144;11.424;2023-11-21T08:34:34;8.60;99.90
12276;DHT22;6200;48.144;11.424;2023-11-21T08:37:00;8.50;99.90
12276;DHT22;6200;48.144;11.424;2023-11-21T08:39:25;8.60;99.90
12276;DHT22;6200;48.144;11.424;2023-11-21T08:41:52;8.60;99.90
12276;DHT22;6200;48.144;11.424;2023-11-21T08:44:17;8.70;99.90
12276;DHT22;6200;48.144;11.424;2023-11-21T08:46:46;8.80;99.90
12276;DHT22;6200;48.144;11.424;2023-11-21T08:49:12;8.80;99.90
12276;DHT22;6200;48.144;11.424;2023-11-21T08:51:38;9.00;99.90
12276;DHT22;6200;48.144;11.424;2023-11-21T08:54:04;9.10;99.90
12276;DHT22;6200;48.144;11.424;2023-11-21T08:56:33;9.30;99.90
12276;DHT22;6200;48.144;11.424;2023-11-21T08:58:59;9.40;99.90
12276;DHT22;6200;48.144;11.424;2023-11-21T09:01:27;9.50;99.90
12276;DHT22;6200;48.144;11.424;2023-11-21T09:03:53;9.60;99.90
12276;DHT22;6200;48.144;11.424;2023-11-21T09:06:19;9.30;99.90
12276;DHT22;6200;48.144;11.424;2023-11-21T09:08:44;9.40;99.90
12276;DHT22;6200;48.144;11.424;2023-11-21T09:11:10;9.50;99.90
12276;DHT22;6200;48.144;11.424;2023-11-21T09:13:35;9.60;99.90
12276;DHT22;6200;48.144;11.424;2023-11-21T09:16:02;9.60;99.90
12276;DHT22;6200;48.144;11.424;2023-11-21T09:18:27;9.70;99.90
12276;DHT22;6200;48.144;11.424;2023-11-21T09:20:53;9.70;99.90
12276;DHT22;6200;48.144;11.424;2023-11-21T09:23:18;9.80;99.90
12276;DHT22;6200;48.144;11.424;2023-11-21T09:25:44;9.90;99.90
12276;DHT22;6200;48.144;11.424;2023-11-21T09:28:11;10.10;99.90
12276;DHT22;6200;48.144;11.424;2023-11-21T09:30:37;10.30;99.90
12276;DHT22;6200;48.144;11.424;2023-11-21T09:33:03;10.40;99.90
12276;DHT22;6200;48.144;11.424;2023-11-21T09:35:33;11.30;99.90
12276;DHT22;6200;48.144;11.424;2023-11-21T09:37:59;10.80;99.90
12276;DHT22;6200;48.144;11.424;2023-11-21T09:40:26;11.00;99.90
12276;DHT22;6200;48.144;11.424;2023-11-21T09:42:55;11.30;99.90
12276;DHT22;6200;48.144;11.424;2023-11-21T09:45:29;11.30;99.90
12276;DHT22;6200;48.144;11.424;2023-11-21T09:47:57;11.10;99.90
12276;DHT22;6200;48.144;11.424;2023-11-21T09:50:23;10.90;99.90
12276;DHT22;6200;48.144;11.424;2023-11-21T09:52:57;11.00;99.90
12276;DHT22;6200;48.144;11.424;2023-11-21T09:55:25;10.90;99.90
12276;DHT22;6200;48.144;11.424;2023-11-21T09:57:53;10.90;99.90
12276;DHT22;6200;48.144;11.424;2023-11-21T10:00:21;10.90;99.90
12276;DHT22;6200;48.144;11.424;2023-11-21T10:02:49;10.80;99.90
12276;DHT22;6200;48.144;11.424;2023-11-21T10:05:15;10.70;99.90
12276;DHT22;6200;48.144;11.424;2023-11-21T10:07:43;10.50;99.90
12276;DHT22;6200;48.144;11.424;2023-11-21T10:10:10;10.60;99.90
12276;DHT22;6200;48.144;11.424;2023-11-21T10:12:37;10.50;99.90
12276;DHT22;6200;48.144;11.424;2023-11-21T10:15:07;10.50;99.90
12276;DHT22;6200;48.144;11.424;2023-11-21T10:17:36;10.60;99.90
12276;DHT22;6200;48.144;11.424;2023-11-21T10:20:10;10.50;99.90
12276;DHT22;6200;48.144;11.424;2023-11-21T10:22:42;10.60;99.90
12276;DHT22;6200;48.144;11.424;2023-11-21T10:25:09;10.70;99.90
12276;DHT22;6200;48.144;11.424;2023-11-21T10:27:38;9.80;99.90
12276;DHT22;6200;48.144;11.424;2023-11-21T10:30:05;10.80;99.90
12276;DHT22;6200;48.144;11.424;2023-11-21T10:32:31;10.90;99.90
12276;DHT22;6200;48.144;11.424;2023-11-21T10:34:58;10.90;99.90
12276;DHT22;6200;48.144;11.424;2023-11-21T10:37:25;10.80;99.90
12276;DHT22;6200;48.144;11.424;2023-11-21T10:39:57;10.90;99.90
12276;DHT22;6200;48.144;11.424;2023-11-21T10:42:24;10.90;99.90
12276;DHT22;6200;48.144;11.424;2023-11-21T10:44:50;10.80;99.90
12276;DHT22;6200;48.144;11.424;2023-11-21T10:47:16;10.90;99.90
12276;DHT22;6200;48.144;11.424;2023-11-21T10:49:44;11.10;99.90
12276;DHT22;6200;48.144;11.424;2023-11-21T10:52:10;11.10;99.90
12276;DHT22;6200;48.144;11.424;2023-11-21T10:54:46;11.10;99.90
12276;DHT22;6200;48.144;11.424;2023-11-21T10:57:15;11.20;99.90
12276;DHT22;6200;48.144;11.424;2023-11-21T10:59:46;11.20;99.90
12276;DHT22;6200;48.144;11.424;2023-11-21T11:02:33;11.20;99.90
12276;DHT22;6200;48.144;11.424;2023-11-21T11:04:59;11.10;99.90
12276;DHT22;6200;48.144;11.424;2023-11-21T11:07:26;11.10;99.90
12276;DHT22;6200;48.144;11.424;2023-11-21T11:09:54;11.10;99.90
12276;DHT22;6200;48.144;11.424;2023-11-21T11:12:20;11.10;99.90
12276;DHT22;6200;48.144;11.424;2023-11-21T11:14:46;11.10;99.90
12276;DHT22;6200;48.144;11.424;2023-11-21T11:17:13;11.20;99.90
12276;DHT22;6200;48.144;11.424;2023-11-21T11:19:39;11.40;99.90
12276;DHT22;6200;48.144;11.424;2023-11-21T11:22:24;11.40;99.90
12276;DHT22;6200;48.144;11.424;2023-11-21T11:28:03;11.50;99.90
12276;DHT22;6200;48.144;11.424;2023-11-21T11:33:31;11.30;99.90
12276;DHT22;6200;48.144;11.424;2023-11-21T11:36:31;11.10;99.90
12276;DHT22;6200;48.144;11.424;2023-11-21T11:38:59;11.00;99.90
12276;DHT22;6200;48.144;11.424;2023-11-21T11:41:29;11.00;99.90
12276;DHT22;6200;48.144;11.424;2023-11-21T11:43:57;11.00;99.90
12276;DHT22;6200;48.144;11.424;2023-11-21T11:46:43;11.10;99.90
12276;DHT22;6200;48.144;11.424;2023-11-21T11:49:27;11.00;99.90
12276;DHT22;6200;48.144;11.424;2023-11-21T11:54:58;11.00;99.90
12276;DHT22;6200;48.144;11.424;2023-11-21T11:57:24;11.00;99.90
12276;DHT22;6200;48.144;11.424;2023-11-21T12:02:37;11.00;99.90
12276;DHT22;6200;48.144;11.424;2023-11-21T12:05:17;11.20;99.90
12276;DHT22;6200;48.144;11.424;2023-11-21T12:10:12;11.30;99.90
12276;DHT22;6200;48.144;11.424;2023-11-21T12:12:42;11.60;99.90
12276;DHT22;6200;48.144;11.424;2023-11-21T12:15:08;11.70;99.90
12276;DHT22;6200;48.144;11.424;2023-11-21T12:17:34;12.00;99.90
12276;DHT22;6200;48.144;11.424;2023-11-21T12:20:03;11.90;99.90
12276;DHT22;6200;48.144;11.424;2023-11-21T12:22:30;11.80;99.90
12276;DHT22;6200;48.144;11.424;2023-11-21T12:24:56;11.80;99.90
12276;DHT22;6200;48.144;11.424;2023-11-21T12:27:21;11.60;99.90
12276;DHT22;6200;48.144;11.424;2023-11-21T12:29:47;11.50;99.90
12276;DHT22;6200;48.144;11.424;2023-11-21T12:32:13;11.50;99.90
12276;DHT22;6200;48.144;11.424;2023-11-21T12:34:40;11.50;99.90
12276;DHT22;6200;48.144;11.424;2023-11-21T12:37:06;11.40;99.90
12276;DHT22;6200;48.144;11.424;2023-11-21T12:39:32;11.50;99.90
12276;DHT22;6200;48.144;11.424;2023-11-21T12:41:57;11.40;99.90
12276;DHT22;6200;48.144;11.424;2023-11-21T12:44:23;11.40;99.90
12276;DHT22;6200;48.144;11.424;2023-11-21T12:46:49;11.20;99.90
12276;DHT22;6200;48.144;11.424;2023-11-21T12:49:15;11.20;99.90
12276;DHT22;6200;48.144;11.424;2023-11-21T12:51:45;11.10;99.90
12276;DHT22;6200;48.144;11.424;2023-11-21T12:54:12;10.90;99.90
12276;DHT22;6200;48.144;11.424;2023-11-21T12:56:39;10.70;99.90
12276;DHT22;6200;48.144;11.424;2023-11-21T12:59:04;10.50;99.90
12276;DHT22;6200;48.144;11.424;2023-11-21T13:01:30;10.60;99.90
12276;DHT22;6200;48.144;11.424;2023-11-21T13:04:00;10.70;99.90
12276;DHT22;6200;48.144;11.424;2023-11-21T13:06:27;10.70;99.90
12276;DHT22;6200;48.144;11.424;2023-11-21T13:08:55;10.70;99.90
12276;DHT22;6200;48.144;11.424;2023-11-21T13:11:22;10.90;99.90
12276;DHT22;6200;48.144;11.424;2023-11-21T13:13:51;10.80;99.90
12276;DHT22;6200;48.144;11.424;2023-11-21T13:16:18;10.80;99.90
12276;DHT22;6200;48.144;11.424;2023-11-21T13:18:46;11.00;99.90
12276;DHT22;6200;48.144;11.424;2023-11-21T13:21:12;10.90;99.90
12276;DHT22;6200;48.144;11.424;2023-11-21T13:23:42;11.00;99.90
12276;DHT22;6200;48.144;11.424;2023-11-21T13:26:09;11.00;99.90
12276;DHT22;6200;48.144;11.424;2023-11-21T13:28:35;11.00;99.90
12276;DHT22;6200;48.144;11.424;2023-11-21T13:31:03;10.90;99.90
12276;DHT22;6200;48.144;11.424;2023-11-21T13:33:36;11.00;99.90
12276;DHT22;6200;48.144;11.424;2023-11-21T13:36:07;11.10;99.90
12276;DHT22;6200;48.144;11.424;2023-11-21T13:38:34;11.10;99.90
12276;DHT22;6200;48.144;11.424;2023-11-21T13:41:01;11.20;99.90
12276;DHT22;6200;48.144;11.424;2023-11-21T13:43:28;11.10;99.90
12276;DHT22;6200;48.144;11.424;2023-11-21T13:45:54;11.20;99.90
12276;DHT22;6200;48.144;11.424;2023-11-21T13:48:38;11.20;99.90
12276;DHT22;6200;48.144;11.424;2023-11-21T13:51:09;11.40;99.90
12276;DHT22;6200;48.144;11.424;2023-11-21T13:53:45;11.40;99.90
12276;DHT22;6200;48.144;11.424;2023-11-21T13:56:16;11.50;99.90
12276;DHT22;6200;48.144;11.424;2023-11-21T13:58:45;11.40;99.90
12276;DHT22;6200;48.144;11.424;2023-11-21T14:01:17;11.40;99.90
12276;DHT22;6200;48.144;11.424;2023-11-21T14:03:59;11.40;99.90
12276;DHT22;6200;48.144;11.424;2023-11-21T14:06:37;11.20;99.90
12276;DHT22;6200;48.144;11.424;2023-11-21T14:09:16;10.90;99.90
12276;DHT22;6200;48.144;11.424;2023-11-21T14:11:53;10.60;99.90
12276;DHT22;6200;48.144;11.424;2023-11-21T14:14:23;10.30;99.90
12276;DHT22;6200;48.144;11.424;2023-11-21T14:16:50;10.10;99.90
12276;DHT22;6200;48.144;11.424;2023-11-21T14:19:16;10.10;99.90
12276;DHT22;6200;48.144;11.424;2023-11-21T14:21:43;9.90;99.90
12276;DHT22;6200;48.144;11.424;2023-11-21T14:24:09;9.60;99.90
12276;DHT22;6200;48.144;11.424;2023-11-21T14:26:35;9.40;99.90
12276;DHT22;6200;48.144;11.424;2023-11-21T14:29:00;9.30;99.90
12276;DHT22;6200;48.144;11.424;2023-11-21T14:31:26;9.20;99.90
12276;DHT22;6200;48.144;11.424;2023-11-21T14:33:54;9.10;99.90
12276;DHT22;6200;48.144;11.424;2023-11-21T14:36:20;9.10;99.90
12276;DHT22;6200;48.144;11.424;2023-11-21T14:38:45;9.00;99.90
12276;DHT22;6200;48.144;11.424;2023-11-21T14:41:11;8.90;99.90
12276;DHT22;6200;48.144;11.424;2023-11-21T14:43:37;10.10;99.90
12276;DHT22;6200;48.144;11.424;2023-11-21T14:46:04;8.90;99.90
12276;DHT22;6200;48.144;11.424;2023-11-21T14:48:34;8.90;99.90
12276;DHT22;6200;48.144;11.424;2023-11-21T14:51:08;8.90;99.90
12276;DHT22;6200;48.144;11.424;2023-11-21T14:53:53;8.80;99.90
12276;DHT22;6200;48.144;11.424;2023-11-21T14:56:23;8.80;99.90
12276;DHT22;6200;48.144;11.424;2023-11-21T14:59:00;8.80;99.90
12276;DHT22;6200;48.144;11.424;2023-11-21T15:01:32;8.80;99.90
12276;DHT22;6200;48.144;11.424;2023-11-21T15:04:19;8.80;99.90
12276;DHT22;6200;48.144;11.424;2023-11-21T15:07:05;8.70;99.90
12276;DHT22;6200;48.144;11.424;2023-11-21T15:09:31;8.70;99.90
12276;DHT22;6200;48.144;11.424;2023-11-21T15:11:57;8.70;99.90
12276;DHT22;6200;48.144;11.424;2023-11-21T15:14:29;8.50;99.90
12276;DHT22;6200;48.144;11.424;2023-11-21T15:16:58;8.50;99.90
12276;DHT22;6200;48.144;11.424;2023-11-21T15:19:25;8.40;99.90
12276;DHT22;6200;48.144;11.424;2023-11-21T15:21:51;8.40;99.90
12276;DHT22;6200;48.144;11.424;2023-11-21T15:24:17;8.40;99.90
12276;DHT22;6200;48.144;11.424;2023-11-21T15:26:42;8.40;99.90
12276;DHT22;6200;48.144;11.424;2023-11-21T15:29:08;8.40;99.90
12276;DHT22;6200;48.144;11.424;2023-11-21T15:31:34;8.40;99.90
12276;DHT22;6200;48.144;11.424;2023-11-21T15:34:01;8.40;99.90
12276;DHT22;6200;48.144;11.424;2023-11-21T15:36:27;8.40;99.90
12276;DHT22;6200;48.144;11.424;2023-11-21T15:38:53;8.30;99.90
12276;DHT22;6200;48.144;11.424;2023-11-21T15:41:19;8.30;99.90
12276;DHT22;6200;48.144;11.424;2023-11-21T15:43:44;8.30;99.90
12276;DHT22;6200;48.144;11.424;2023-11-21T15:46:10;8.40;99.90
12276;DHT22;6200;48.144;11.424;2023-11-21T15:48:37;8.30;99.90
12276;DHT22;6200;48.144;11.424;2023-11-21T15:51:06;8.30;99.90
12276;DHT22;6200;48.144;11.424;2023-11-21T15:53:33;8.30;99.90
12276;DHT22;6200;48.144;11.424;2023-11-21T15:55:59;8.30;99.90
12276;DHT22;6200;48.144;11.424;2023-11-21T15:58:24;8.30;99.90